createdAt,value
2022-11-07T00:00:26.844Z,100027.28
2022-11-07T00:03:29.566Z,100049.44
2022-11-07T00:06:34.030Z,100041.31
2022-11-07T00:09:37.302Z,100036.28
2022-11-07T00:12:40.779Z,100052.16
2022-11-07T00:15:43.502Z,100064.69
2022-11-07T00:18:46.504Z,100068.19
2022-11-07T00:21:51.024Z,100071.78
2022-11-07T00:24:54.050Z,100064.44
2022-11-07T00:27:56.740Z,100062.53
2022-11-07T00:30:59.910Z,100050.78
2022-11-07T00:34:04.021Z,100050.63
2022-11-07T00:37:08.113Z,100057.88
2022-11-07T00:40:11.707Z,100064.31
2022-11-07T00:43:14.876Z,100059.78
2022-11-07T00:46:19.843Z,100065.06
2022-11-07T00:49:23.035Z,100072.94
2022-11-07T00:52:27.451Z,100076.59
2022-11-07T00:55:30.601Z,100075.50
2022-11-07T00:58:33.696Z,100083.63
2022-11-07T01:01:36.685Z,100047.41
2022-11-07T01:04:57.394Z,100079.81
2022-11-07T01:08:01.466Z,100088.75
2022-11-07T01:11:06.133Z,100086.84
2022-11-07T01:14:10.444Z,100076.00
2022-11-07T01:17:13.178Z,100091.06
2022-11-07T01:20:16.146Z,100088.44
2022-11-07T01:23:20.232Z,100091.00
2022-11-07T01:26:23.369Z,100095.63
2022-11-07T01:29:26.103Z,100106.00
2022-11-07T01:32:29.539Z,100102.66
2022-11-07T01:35:33.566Z,100093.66
2022-11-07T01:38:39.900Z,100099.78
2022-11-07T01:41:43.447Z,100097.94
2022-11-07T01:44:56.886Z,100096.19
2022-11-07T01:48:03.556Z,100099.69
2022-11-07T01:51:07.782Z,100086.09
2022-11-07T01:54:14.637Z,100105.84
2022-11-07T01:57:23.372Z,100109.22
2022-11-07T02:00:27.624Z,100103.94
2022-11-07T02:03:30.432Z,100097.50
2022-11-07T02:06:47.540Z,100102.03
2022-11-07T02:09:53.618Z,100101.88
2022-11-07T02:12:59.983Z,100094.53
2022-11-07T02:16:05.466Z,100106.19
2022-11-07T02:19:14.405Z,100100.78
2022-11-07T02:22:24.844Z,100086.19
2022-11-07T02:25:30.708Z,100088.84
2022-11-07T02:28:35.565Z,100084.31
2022-11-07T02:31:38.635Z,100082.59
2022-11-07T02:34:41.479Z,100087.06
2022-11-07T02:37:44.363Z,100088.84
2022-11-07T02:40:52.659Z,100081.66
2022-11-07T02:44:00.879Z,100075.28
2022-11-07T02:47:04.201Z,100078.88
2022-11-07T02:50:08.814Z,100077.81
2022-11-07T02:53:12.636Z,100079.59
2022-11-07T02:56:17.281Z,100074.16
2022-11-07T02:59:25.738Z,100078.69
2022-11-07T03:02:30.253Z,100080.41
2022-11-07T03:05:33.655Z,100072.97
2022-11-07T03:08:36.693Z,100070.34
2022-11-07T03:11:40.785Z,100084.69
2022-11-07T03:14:43.635Z,100089.09
2022-11-07T03:17:46.892Z,100083.81
2022-11-07T03:20:49.780Z,100078.16
2022-11-07T03:23:53.064Z,100075.47
2022-11-07T03:26:57.178Z,100074.50
2022-11-07T03:30:00.338Z,100071.94
2022-11-07T03:33:03.286Z,100071.06
2022-11-07T03:36:07.331Z,100075.91
2022-11-07T03:39:11.271Z,100078.88
2022-11-07T03:42:15.917Z,100086.19
2022-11-07T03:45:19.434Z,100095.22
2022-11-07T03:48:22.165Z,100105.88
2022-11-07T03:51:25.149Z,100100.31
2022-11-07T03:54:28.527Z,100100.06
2022-11-07T03:57:32.654Z,100094.66
2022-11-07T04:00:35.533Z,100099.22
2022-11-07T04:03:38.464Z,100096.03
2022-11-07T04:06:41.281Z,100098.38
2022-11-07T04:09:44.021Z,100097.22
2022-11-07T04:13:05.467Z,100102.34
2022-11-07T04:16:23.830Z,100068.94
2022-11-07T04:19:27.654Z,100114.06
2022-11-07T04:22:31.030Z,100129.41
2022-11-07T04:26:05.654Z,100117.66
2022-11-07T04:29:09.745Z,100123.94
2022-11-07T04:32:12.475Z,100129.41
2022-11-07T04:35:15.861Z,100128.84
2022-11-07T04:38:18.651Z,100145.16
2022-11-07T04:41:23.665Z,100147.84
2022-11-07T04:44:27.810Z,100129.06
2022-11-07T04:47:31.145Z,100134.25
2022-11-07T04:50:33.908Z,100138.28
2022-11-07T04:53:37.053Z,100140.50
2022-11-07T04:56:40.256Z,100143.56
2022-11-07T04:59:44.331Z,100139.69
2022-11-07T05:02:48.193Z,100140.09
2022-11-07T05:05:51.119Z,100134.41
2022-11-07T05:08:54.305Z,100135.28
2022-11-07T05:11:57.361Z,100142.44
2022-11-07T05:15:02.246Z,100142.28
2022-11-07T05:18:05.233Z,100136.88
2022-11-07T05:21:08.043Z,100131.31
2022-11-07T05:24:11.784Z,100135.69
2022-11-07T05:27:20.069Z,100137.75
2022-11-07T05:30:24.544Z,100134.22
2022-11-07T05:33:27.898Z,100132.47
2022-11-07T05:36:31.089Z,100137.00
2022-11-07T05:39:34.520Z,100131.38
2022-11-07T05:42:37.702Z,100147.41
2022-11-07T05:45:42.622Z,100157.34
2022-11-07T05:48:45.941Z,100147.41
2022-11-07T05:51:49.146Z,100152.41
2022-11-07T05:54:51.896Z,100155.41
2022-11-07T05:57:56.407Z,100151.09
2022-11-07T06:01:03.649Z,100151.31
2022-11-07T06:04:06.425Z,100162.06
2022-11-07T06:07:09.156Z,100158.41
2022-11-07T06:10:12.471Z,100161.38
2022-11-07T06:13:18.102Z,100159.03
2022-11-07T06:16:22.424Z,100171.00
2022-11-07T06:19:25.277Z,100173.19
2022-11-07T06:22:27.998Z,100174.13
2022-11-07T06:25:31.348Z,100177.59
2022-11-07T06:28:34.077Z,100170.81
2022-11-07T06:31:38.173Z,100170.13
2022-11-07T06:34:41.546Z,100167.34
2022-11-07T06:37:44.329Z,100170.88
2022-11-07T06:40:48.241Z,100163.31
2022-11-07T06:43:51.661Z,100168.19
2022-11-07T06:46:56.385Z,100174.22
2022-11-07T06:49:59.109Z,100178.59
2022-11-07T06:53:04.101Z,100179.66
2022-11-07T06:56:09.061Z,100191.94
2022-11-07T06:59:11.963Z,100192.72
2022-11-07T07:02:30.823Z,100194.06
2022-11-07T07:05:39.832Z,100192.91
2022-11-07T07:08:42.969Z,100198.88
2022-11-07T07:11:46.046Z,100183.56
2022-11-07T07:14:48.774Z,100200.81
2022-11-07T07:17:53.116Z,100208.56
2022-11-07T07:21:03.085Z,100213.59
2022-11-07T07:24:06.841Z,100217.59
2022-11-07T07:27:09.620Z,100211.78
2022-11-07T07:30:13.872Z,100208.75
2022-11-07T07:33:18.697Z,100213.06
2022-11-07T07:36:22.384Z,100214.72
2022-11-07T07:39:27.539Z,100217.50
2022-11-07T07:42:30.356Z,100217.63
2022-11-07T07:45:33.510Z,100222.00
2022-11-07T07:48:37.586Z,100226.31
2022-11-07T07:51:40.426Z,100227.75
2022-11-07T07:54:43.153Z,100236.38
2022-11-07T07:57:46.357Z,100224.94
2022-11-07T08:00:52.865Z,100222.78
2022-11-07T08:04:02.028Z,100217.00
2022-11-07T08:07:05.179Z,100223.06
2022-11-07T08:10:35.111Z,100209.47
2022-11-07T08:13:31.914Z,100229.28
2022-11-07T08:16:34.804Z,100225.63
2022-11-07T08:19:38.886Z,100240.00
2022-11-07T08:22:42.217Z,100231.50
2022-11-07T08:25:50.900Z,100231.59
2022-11-07T08:28:55.235Z,100229.75
2022-11-07T08:31:58.795Z,100232.31
2022-11-07T08:35:02.858Z,100221.06
2022-11-07T08:38:06.800Z,100225.25
2022-11-07T08:41:09.590Z,100218.22
2022-11-07T08:44:13.058Z,100219.41
2022-11-07T08:47:15.803Z,100224.53
2022-11-07T08:50:20.117Z,100223.47
2022-11-07T08:53:23.971Z,100211.91
2022-11-07T08:56:26.727Z,100220.31
2022-11-07T08:59:30.204Z,100225.94
2022-11-07T09:05:58.393Z,100231.06
2022-11-07T09:09:01.391Z,100227.63
2022-11-07T09:12:04.202Z,100224.16
2022-11-07T09:15:07.981Z,100233.72
2022-11-07T09:18:10.750Z,100231.19
2022-11-07T09:21:21.762Z,100229.53
2022-11-07T09:24:25.048Z,100229.34
2022-11-07T09:27:28.222Z,100236.19
2022-11-07T09:30:31.008Z,100238.13
2022-11-07T09:33:34.148Z,100239.16
2022-11-07T09:36:38.182Z,100234.19
2022-11-07T09:39:41.379Z,100244.72
2022-11-07T09:42:54.436Z,100237.56
2022-11-07T09:46:11.118Z,100231.38
2022-11-07T09:49:19.552Z,100221.44
2022-11-07T09:52:29.697Z,100230.69
2022-11-07T09:55:35.671Z,100233.16
2022-11-07T09:58:42.953Z,100235.47
2022-11-07T10:01:46.339Z,100232.53
2022-11-07T10:04:56.363Z,100236.81
2022-11-07T10:08:08.919Z,100236.81
2022-11-07T10:11:17.869Z,100238.84
2022-11-07T10:14:29.328Z,100244.91
2022-11-07T10:17:43.135Z,100240.94
2022-11-07T10:21:16.195Z,100229.84
2022-11-07T10:24:36.284Z,100241.97
2022-11-07T10:27:40.059Z,100243.25
2022-11-07T10:30:46.225Z,100251.19
2022-11-07T10:33:55.325Z,100260.94
2022-11-07T10:36:58.081Z,100256.03
2022-11-07T10:40:02.785Z,100265.63
2022-11-07T10:43:10.320Z,100263.16
2022-11-07T10:46:18.148Z,100255.97
2022-11-07T10:49:22.503Z,100268.47
2022-11-07T10:52:26.239Z,100263.69
2022-11-07T10:55:34.891Z,100258.41
2022-11-07T10:58:45.971Z,100262.25
2022-11-07T11:01:52.221Z,100258.94
2022-11-07T11:04:56.594Z,100268.41
2022-11-07T11:08:14.453Z,100258.28
2022-11-07T11:11:28.322Z,100243.13
2022-11-07T11:14:31.218Z,100253.28
2022-11-07T11:17:34.921Z,100256.19
2022-11-07T11:20:40.985Z,100257.97
2022-11-07T11:23:46.180Z,100239.34
2022-11-07T11:26:53.151Z,100233.59
2022-11-07T11:30:01.386Z,100236.03
2022-11-07T11:33:11.611Z,100226.75
2022-11-07T11:36:19.641Z,100231.34
2022-11-07T11:39:28.569Z,100214.75
2022-11-07T11:42:41.837Z,100222.44
2022-11-07T11:45:53.543Z,100224.34
2022-11-07T11:49:00.976Z,100215.03
2022-11-07T11:52:12.239Z,100218.91
2022-11-07T11:55:16.928Z,100204.09
2022-11-07T11:58:33.228Z,100214.59
2022-11-07T12:01:44.112Z,100217.53
2022-11-07T12:04:57.983Z,100216.97
2022-11-07T12:08:14.420Z,100224.28
2022-11-07T12:11:24.792Z,100219.97
2022-11-07T12:14:57.005Z,100214.94
2022-11-07T12:18:06.445Z,100212.75
2022-11-07T12:21:21.823Z,100216.19
2022-11-07T12:24:34.379Z,100207.44
2022-11-07T12:27:47.233Z,100206.47
2022-11-07T12:31:02.138Z,100204.72
2022-11-07T12:34:18.503Z,100201.75
2022-11-07T12:37:57.235Z,100206.16
2022-11-07T12:41:07.615Z,100201.91
2022-11-07T12:44:29.116Z,100196.44
2022-11-07T12:47:50.053Z,100202.88
2022-11-07T12:51:04.032Z,100197.44
2022-11-07T12:54:26.076Z,100184.56
2022-11-07T12:57:33.028Z,100178.78
2022-11-07T13:00:37.272Z,100173.06
2022-11-07T13:04:06.696Z,100171.97
2022-11-07T13:07:18.896Z,100168.25
2022-11-07T13:10:27.431Z,100169.22
2022-11-07T13:13:39.815Z,100169.34
2022-11-07T13:16:52.692Z,100171.84
2022-11-07T13:20:05.531Z,100160.25
2022-11-07T13:23:17.235Z,100165.72
2022-11-07T13:29:53.040Z,100172.53
2022-11-07T13:32:55.914Z,100180.59
2022-11-07T13:36:12.762Z,100177.03
2022-11-07T13:39:22.678Z,100176.88
2022-11-07T13:42:29.245Z,100161.91
2022-11-07T13:45:38.752Z,100165.84
2022-11-07T13:48:48.919Z,100161.25
2022-11-07T13:51:56.491Z,100157.63
2022-11-07T13:55:07.868Z,100159.16
2022-11-07T13:58:15.179Z,100147.97
2022-11-07T14:01:18.572Z,100161.09
2022-11-07T14:04:22.620Z,100149.91
2022-11-07T14:07:27.209Z,100176.91
2022-11-07T14:10:33.641Z,100171.88
2022-11-07T14:13:41.566Z,100179.63
2022-11-07T14:16:46.628Z,100177.31
2022-11-07T14:19:49.516Z,100182.09
2022-11-07T14:22:55.925Z,100183.59
2022-11-07T14:26:02.082Z,100182.25
2022-11-07T14:29:04.953Z,100189.91
2022-11-07T14:32:08.869Z,100188.75
2022-11-07T14:35:11.710Z,100186.31
2022-11-07T14:38:20.355Z,100190.44
2022-11-07T14:41:24.232Z,100194.38
2022-11-07T14:44:47.654Z,100184.50
2022-11-07T14:47:54.558Z,100191.03
2022-11-07T14:50:58.493Z,100195.84
2022-11-07T14:54:07.829Z,100195.16
2022-11-07T14:57:14.011Z,100195.38
2022-11-07T15:00:20.432Z,100188.34
2022-11-07T15:03:30.633Z,100190.66
2022-11-07T15:06:35.685Z,100186.97
2022-11-07T15:09:40.832Z,100190.75
2022-11-07T15:12:51.171Z,100178.41
2022-11-07T15:16:01.857Z,100176.09
2022-11-07T15:19:07.178Z,100177.25
2022-11-07T15:22:28.068Z,100183.09
2022-11-07T15:25:37.641Z,100182.63
2022-11-07T15:28:48.699Z,100193.72
2022-11-07T15:31:51.606Z,100192.16
2022-11-07T15:35:23.298Z,100190.50
2022-11-07T15:38:22.472Z,100198.09
2022-11-07T15:41:26.597Z,100200.13
2022-11-07T15:44:29.362Z,100193.03
2022-11-07T15:47:32.422Z,100206.88
2022-11-07T15:50:40.551Z,100209.84
2022-11-07T15:53:43.300Z,100207.25
2022-11-07T15:56:48.169Z,100205.69
2022-11-07T15:59:50.948Z,100204.78
2022-11-07T16:02:54.250Z,100215.78
2022-11-07T16:06:02.279Z,100207.81
2022-11-07T16:09:05.796Z,100213.28
2022-11-07T16:12:10.507Z,100209.75
2022-11-07T16:15:13.924Z,100210.72
2022-11-07T16:18:18.692Z,100219.84
2022-11-07T16:21:22.035Z,100223.56
2022-11-07T16:24:24.822Z,100225.59
2022-11-07T16:27:29.043Z,100222.00
2022-11-07T16:30:32.656Z,100221.22
2022-11-07T16:33:35.650Z,100218.56
2022-11-07T16:36:39.534Z,100211.75
2022-11-07T16:39:42.422Z,100225.09
2022-11-07T16:42:47.460Z,100219.84
2022-11-07T16:45:52.684Z,100214.56
2022-11-07T16:48:59.491Z,100222.72
2022-11-07T16:52:04.288Z,100217.38
2022-11-07T16:55:07.947Z,100217.50
2022-11-07T16:58:23.781Z,100205.97
2022-11-07T17:01:28.025Z,100212.41
2022-11-07T17:04:30.881Z,100226.22
2022-11-07T17:07:33.979Z,100230.88
2022-11-07T17:10:36.709Z,100223.75
2022-11-07T17:13:41.169Z,100221.31
2022-11-07T17:16:48.383Z,100228.75
2022-11-07T17:19:51.481Z,100222.72
2022-11-07T17:22:54.589Z,100222.22
2022-11-07T17:25:59.628Z,100228.88
2022-11-07T17:29:06.967Z,100223.13
2022-11-07T17:32:10.118Z,100226.09
2022-11-07T17:38:36.404Z,100228.28
2022-11-07T17:41:40.247Z,100226.53
2022-11-07T17:44:44.501Z,100226.53
2022-11-07T17:47:47.212Z,100233.13
2022-11-07T17:50:49.983Z,100235.06
2022-11-07T17:53:52.708Z,100235.41
2022-11-07T17:56:55.572Z,100234.88
2022-11-07T17:59:59.982Z,100223.09
2022-11-07T18:03:04.152Z,100236.69
2022-11-07T18:06:07.346Z,100241.38
2022-11-07T18:09:15.347Z,100239.25
2022-11-07T18:12:18.164Z,100241.59
2022-11-07T18:15:22.346Z,100244.75
2022-11-07T18:18:25.130Z,100235.34
2022-11-07T18:21:29.254Z,100239.50
2022-11-07T18:24:32.247Z,100242.63
2022-11-07T18:27:35.028Z,100242.53
2022-11-07T18:30:39.098Z,100252.78
2022-11-07T18:33:42.653Z,100236.63
2022-11-07T18:36:46.519Z,100254.53
2022-11-07T18:39:49.374Z,100240.34
2022-11-07T18:42:52.136Z,100251.03
2022-11-07T18:45:57.206Z,100252.22
2022-11-07T18:49:00.620Z,100254.88
2022-11-07T18:52:03.866Z,100250.13
2022-11-07T18:55:07.248Z,100253.47
2022-11-07T18:58:10.674Z,100246.94
2022-11-07T19:01:17.462Z,100232.53
2022-11-07T19:04:20.557Z,100241.16
2022-11-07T19:07:23.276Z,100241.88
2022-11-07T19:10:26.081Z,100247.31
2022-11-07T19:13:29.379Z,100237.38
2022-11-07T19:16:33.645Z,100249.75
2022-11-07T19:19:36.707Z,100247.84
2022-11-07T19:22:40.408Z,100245.03
2022-11-07T19:25:43.628Z,100244.09
2022-11-07T19:28:46.427Z,100238.88
2022-11-07T19:31:50.548Z,100245.03
2022-11-07T19:34:53.292Z,100240.56
2022-11-07T19:37:56.129Z,100243.63
2022-11-07T19:41:03.008Z,100236.59
2022-11-07T19:44:06.132Z,100236.13
2022-11-07T19:47:10.600Z,100243.03
2022-11-07T19:50:13.720Z,100233.75
2022-11-07T19:53:17.106Z,100232.34
2022-11-07T19:56:20.133Z,100230.91
2022-11-07T19:59:23.005Z,100228.34
2022-11-07T20:02:38.712Z,100241.13
2022-11-07T20:05:45.614Z,100228.44
2022-11-07T20:08:49.102Z,100232.84
2022-11-07T20:11:51.849Z,100242.41
2022-11-07T20:14:55.187Z,100244.56
2022-11-07T20:17:59.307Z,100245.19
2022-11-07T20:21:03.563Z,100254.47
2022-11-07T20:24:09.074Z,100246.72
2022-11-07T20:27:11.912Z,100249.44
2022-11-07T20:30:15.330Z,100254.28
2022-11-07T20:33:19.561Z,100252.72
2022-11-07T20:36:22.907Z,100254.88
2022-11-07T20:39:25.670Z,100247.78
2022-11-07T20:42:29.220Z,100248.91
2022-11-07T20:45:31.978Z,100252.81
2022-11-07T20:48:36.795Z,100234.47
2022-11-07T20:51:41.187Z,100255.59
2022-11-07T20:54:43.935Z,100237.56
2022-11-07T20:57:46.704Z,100253.75
2022-11-07T21:00:49.536Z,100256.00
2022-11-07T21:03:54.492Z,100252.50
2022-11-07T21:06:57.460Z,100267.47
2022-11-07T21:10:00.204Z,100260.75
2022-11-07T21:13:05.378Z,100270.59
2022-11-07T21:16:09.370Z,100265.81
2022-11-07T21:19:16.299Z,100261.69
2022-11-07T21:22:19.569Z,100267.59
2022-11-07T21:25:22.404Z,100273.53
2022-11-07T21:28:26.424Z,100273.81
2022-11-07T21:31:31.964Z,100270.66
2022-11-07T21:34:37.673Z,100277.31
2022-11-07T21:37:40.491Z,100275.84
2022-11-07T21:40:43.260Z,100281.69
2022-11-07T21:43:46.629Z,100282.94
2022-11-07T21:46:49.897Z,100287.75
2022-11-07T21:49:54.338Z,100282.69
2022-11-07T21:52:57.268Z,100286.22
2022-11-07T21:56:02.214Z,100285.84
2022-11-07T21:59:07.436Z,100284.91
2022-11-07T22:02:12.981Z,100289.13
2022-11-07T22:05:17.280Z,100284.72
2022-11-07T22:08:23.669Z,100284.94
2022-11-07T22:11:27.183Z,100287.28
2022-11-07T22:14:30.441Z,100281.13
2022-11-07T22:17:33.188Z,100276.13
2022-11-07T22:20:39.013Z,100266.56
2022-11-07T22:23:42.159Z,100264.56
2022-11-07T22:26:45.535Z,100267.06
2022-11-07T22:29:48.253Z,100257.66
2022-11-07T22:32:52.032Z,100242.59
2022-11-07T22:35:57.335Z,100252.00
2022-11-07T22:39:00.426Z,100253.41
2022-11-07T22:42:03.682Z,100250.09
2022-11-07T22:45:07.741Z,100248.47
2022-11-07T22:48:11.091Z,100250.50
2022-11-07T22:51:16.901Z,100255.25
2022-11-07T22:54:20.084Z,100255.31
2022-11-07T22:57:22.847Z,100254.53
2022-11-07T23:00:25.702Z,100249.00
2022-11-07T23:03:29.021Z,100250.88
2022-11-07T23:06:34.073Z,100255.31
2022-11-07T23:09:36.950Z,100257.28
2022-11-07T23:12:40.128Z,100244.97
2022-11-07T23:15:42.870Z,100246.69
2022-11-07T23:18:46.092Z,100234.94
2022-11-07T23:21:50.893Z,100241.91
2022-11-07T23:24:54.143Z,100233.44
2022-11-07T23:27:57.219Z,100230.00
2022-11-07T23:30:59.948Z,100238.28
2022-11-07T23:34:03.282Z,100237.44
2022-11-07T23:37:13.775Z,100238.28
2022-11-07T23:40:17.230Z,100231.78
2022-11-07T23:43:19.956Z,100225.69
2022-11-07T23:46:40.367Z,100231.94
2022-11-07T23:50:09.324Z,100230.91
2022-11-07T23:53:27.353Z,100223.16
2022-11-07T23:56:30.724Z,100225.75
2022-11-07T23:59:51.772Z,100225.50
